Time;durP1;ratioP1;P1;durP2;ratioP2;P2;SDS_P1;SDS_P2;PMS_P1;PMS_P2;Temp;Humidity;BMP_temperature;BMP_pressure;BME280_temperature;BME280_humidity;BME280_pressure;Samples;Min_cycle;Max_cycle;Signal;HPM_P1;HPM_P2
2021/11/12 00:02:50;;;;;;;52.60;17.50;;;;;;;8.12;100.00;102351.38;5032869;28;20052;-73
2021/11/12 00:13:29;;;;;;;60.70;19.80;;;;;;;8.32;100.00;102357.69;5035854;28;20082;-73
2021/11/12 00:16:00;;;;;;;63.70;17.88;;;;;;;8.37;100.00;102354.47;5036348;28;20434;-73
2021/11/12 00:18:28;;;;;;;60.30;18.27;;;;;;;8.25;100.00;102350.63;5033899;28;20037;-73
2021/11/12 00:20:59;;;;;;;58.05;18.38;;;;;;;8.30;100.00;102356.25;5034538;28;20038;-73
2021/11/12 00:23:26;;;;;;;55.25;17.55;;;;;;;8.31;100.00;102360.56;5034329;28;20039;-73
2021/11/12 00:25:53;;;;;;;57.97;18.40;;;;;;;8.27;100.00;102354.78;5033340;28;20029;-73
2021/11/12 00:28:22;;;;;;;58.45;18.85;;;;;;;8.33;100.00;102348.66;5036385;28;20036;-73
2021/11/12 00:31:01;;;;;;;57.83;18.08;;;;;;;8.27;100.00;102348.63;5030734;28;20021;-73
2021/11/12 00:33:46;;;;;;;61.08;18.35;;;;;;;8.32;100.00;102351.53;5031857;28;20122;-73
2021/11/12 00:37:16;;;;;;;54.28;18.30;;;;;;;8.35;100.00;102351.19;5046200;28;20037;-73
2021/11/12 00:39:31;;;;;;;60.75;18.90;;;;;;;8.28;100.00;102344.94;5027740;28;20029;-73
2021/11/12 00:45:25;;;;;;;53.88;16.80;;;;;;;8.28;100.00;102348.44;5033349;28;20037;-73
2021/11/12 00:47:28;;;;;;;49.60;16.65;;;;;;;8.29;100.00;102354.59;5021428;28;20048;-73
2021/11/12 00:55:20;;;;;;;52.50;18.17;;;;;;;8.22;100.00;102348.38;5033178;28;20074;-73
2021/11/12 00:57:46;;;;;;;70.97;19.98;;;;;;;8.23;100.00;102347.34;5041896;28;20051;-73
2021/11/12 01:00:13;;;;;;;65.75;18.60;;;;;;;8.23;100.00;102350.00;5033145;28;20025;-73
2021/11/12 01:02:39;;;;;;;68.22;20.58;;;;;;;8.27;100.00;102353.97;5033299;28;20028;-73
2021/11/12 01:05:07;;;;;;;70.68;20.77;;;;;;;8.28;100.00;102355.63;5036636;28;20399;-73
2021/11/12 01:07:33;;;;;;;73.07;19.90;;;;;;;8.26;100.00;102354.97;5033152;28;20156;-73
2021/11/12 01:09:59;;;;;;;73.28;22.15;;;;;;;8.22;100.00;102351.03;5038070;28;20020;-73
2021/11/12 01:12:26;;;;;;;80.15;22.85;;;;;;;8.11;100.00;102355.91;5032894;28;20024;-73
2021/11/12 01:14:52;;;;;;;57.47;19.40;;;;;;;8.15;100.00;102348.31;5043169;28;20206;-73
2021/11/12 01:17:18;;;;;;;76.18;21.27;;;;;;;8.23;100.00;102347.34;5033598;28;20028;-73
2021/11/12 01:19:43;;;;;;;81.25;22.00;;;;;;;8.24;100.00;102360.50;5043422;28;20155;-73
2021/11/12 01:22:10;;;;;;;71.03;21.23;;;;;;;8.26;100.00;102353.16;5035339;28;20028;-73
2021/11/12 01:24:37;;;;;;;68.78;20.90;;;;;;;8.29;100.00;102357.28;5034075;28;20622;-73
2021/11/12 01:27:03;;;;;;;79.13;21.80;;;;;;;8.27;100.00;102352.13;5035773;28;20079;-73
2021/11/12 01:29:29;;;;;;;72.75;22.08;;;;;;;8.27;100.00;102361.97;5036628;28;20036;-73
2021/11/12 01:31:54;;;;;;;68.05;20.05;;;;;;;8.27;100.00;102353.97;5032097;28;20040;-73
2021/11/12 01:34:20;;;;;;;76.90;21.00;;;;;;;8.33;100.00;102359.34;5040406;28;20827;-73
2021/11/12 01:36:46;;;;;;;101.05;24.25;;;;;;;8.24;100.00;102360.50;5038699;28;20033;-73
2021/11/12 01:39:20;;;;;;;95.47;22.77;;;;;;;8.27;100.00;102359.31;5036888;28;20509;-73
2021/11/12 01:41:50;;;;;;;95.47;24.40;;;;;;;8.20;100.00;102361.91;5038378;28;20116;-73
2021/11/12 01:44:17;;;;;;;73.90;22.70;;;;;;;8.23;100.00;102358.03;5034834;28;20395;-73
2021/11/12 01:47:09;;;;;;;80.75;20.73;;;;;;;8.28;100.00;102360.97;5034980;28;20671;-73
2021/11/12 01:49:39;;;;;;;83.93;23.13;;;;;;;8.27;100.00;102354.78;5033189;28;20574;-73
2021/11/12 01:54:46;;;;;;;101.97;24.38;;;;;;;8.28;100.00;102352.94;5035275;28;20040;-73
2021/11/12 01:59:51;;;;;;;69.95;19.65;;;;;;;8.23;100.00;102350.84;5031849;28;20095;-73
2021/11/12 02:02:17;;;;;;;79.43;22.00;;;;;;;8.23;100.00;102347.34;5035396;28;20059;-73
2021/11/12 02:04:43;;;;;;;65.25;20.35;;;;;;;8.31;100.00;102344.53;5030631;28;20036;-73
2021/11/12 02:07:11;;;;;;;88.45;25.00;;;;;;;8.25;100.00;102338.13;5030909;28;20079;-73
2021/11/12 02:09:37;;;;;;;91.50;24.27;;;;;;;8.27;100.00;102338.78;5048893;28;20025;-73
2021/11/12 02:12:10;;;;;;;97.43;25.83;;;;;;;8.27;100.00;102336.09;5033911;28;20025;-73
2021/11/12 02:14:37;;;;;;;88.22;22.08;;;;;;;8.32;100.00;102338.19;5031896;28;20056;-73
2021/11/12 02:17:12;;;;;;;81.18;21.67;;;;;;;8.29;100.00;102336.72;5029673;28;20055;-73
2021/11/12 02:19:38;;;;;;;75.07;20.98;;;;;;;8.31;100.00;102336.53;5041051;28;20036;-73
2021/11/12 02:22:12;;;;;;;74.22;23.02;;;;;;;8.34;100.00;102330.84;5032429;28;20116;-73
2021/11/12 02:25:16;;;;;;;106.77;26.30;;;;;;;8.27;100.00;102329.94;5031513;28;20747;-73
2021/11/12 02:28:15;;;;;;;98.82;25.45;;;;;;;8.25;100.00;102337.28;5033043;28;20283;-73
2021/11/12 02:30:25;;;;;;;88.28;23.17;;;;;;;8.22;100.00;102335.00;5024974;28;20048;-73
2021/11/12 02:32:58;;;;;;;97.63;23.40;;;;;;;8.23;100.00;102336.66;5040513;28;20052;-73
2021/11/12 02:35:24;;;;;;;102.30;23.30;;;;;;;8.28;100.00;102334.25;5043049;28;20034;-73
2021/11/12 02:37:50;;;;;;;101.63;21.98;;;;;;;8.28;100.00;102339.59;5045428;28;20025;-73
2021/11/12 02:40:15;;;;;;;101.05;24.42;;;;;;;8.25;100.00;102339.97;5034900;28;20625;-73
2021/11/12 02:42:41;;;;;;;108.25;24.63;;;;;;;8.15;100.00;102341.13;5038089;28;20055;-73
2021/11/12 02:45:07;;;;;;;76.28;22.13;;;;;;;8.23;100.00;102342.81;5034158;28;20025;-73
2021/11/12 02:47:32;;;;;;;103.22;23.50;;;;;;;8.29;100.00;102341.25;5034125;28;20017;-73
2021/11/12 02:49:58;;;;;;;85.55;24.13;;;;;;;8.31;100.00;102345.38;5037930;28;20028;-73
2021/11/12 02:52:24;;;;;;;78.88;20.88;;;;;;;8.33;100.00;102342.50;5038353;28;20513;-73
2021/11/12 02:54:50;;;;;;;80.07;21.48;;;;;;;8.36;100.00;102339.47;5033746;28;20025;-73
2021/11/12 02:57:19;;;;;;;88.18;22.02;;;;;;;8.37;100.00;102338.44;5045977;28;20028;-73
2021/11/12 02:59:45;;;;;;;82.53;22.40;;;;;;;8.35;100.00;102337.81;5036568;28;20028;-73
2021/11/12 03:02:11;;;;;;;87.47;22.70;;;;;;;8.32;100.00;102338.19;5034555;28;20032;-73
2021/11/12 03:04:36;;;;;;;75.63;19.52;;;;;;;8.30;100.00;102343.72;5035916;28;20044;-73
2021/11/12 03:07:02;;;;;;;99.38;23.15;;;;;;;8.30;100.00;102342.91;5036499;28;20555;-73
2021/11/12 03:09:30;;;;;;;93.15;23.42;;;;;;;8.23;100.00;102342.81;5035242;28;20076;-73
2021/11/12 03:11:58;;;;;;;93.50;23.10;;;;;;;8.19;100.00;102341.56;5030608;28;20021;-73
2021/11/12 03:14:23;;;;;;;70.72;20.27;;;;;;;8.28;100.00;102336.94;5036397;28;20033;-73
2021/11/12 03:16:50;;;;;;;89.90;22.65;;;;;;;8.31;100.00;102337.34;5038415;28;20025;-73
2021/11/12 03:19:19;;;;;;;72.55;19.48;;;;;;;8.33;100.00;102337.16;5036792;28;20519;-73
2021/11/12 03:21:46;;;;;;;89.25;22.05;;;;;;;8.30;100.00;102337.56;5050349;28;20611;-73
2021/11/12 03:24:20;;;;;;;94.43;22.50;;;;;;;8.28;100.00;102345.75;5037533;28;20028;-73
2021/11/12 04:01:56;;;;;;;82.63;20.38;;;;;;;8.16;100.00;102325.94;5037198;28;20049;-73
2021/11/12 04:50:00;;;;;;;89.40;22.23;;;;;;;8.11;100.00;102299.00;5040026;28;20061;-73
2021/11/12 05:56:32;;;;;;;96.38;20.15;;;;;;;7.99;100.00;102324.56;5031098;28;20102;-73
2021/11/12 05:58:58;;;;;;;130.07;25.27;;;;;;;7.93;100.00;102328.84;5038739;28;20594;-72
2021/11/12 06:01:24;;;;;;;95.47;21.60;;;;;;;8.02;100.00;102341.00;5031719;28;20616;-73
2021/11/12 06:03:50;;;;;;;84.30;20.15;;;;;;;8.03;100.00;102325.81;5028462;28;20029;-73
2021/11/12 06:06:15;;;;;;;114.95;23.58;;;;;;;8.06;100.00;102331.59;5039657;28;20099;-72
2021/11/12 06:08:41;;;;;;;93.15;20.63;;;;;;;7.99;100.00;102337.91;5032162;28;20045;-72
2021/11/12 06:11:08;;;;;;;86.10;19.45;;;;;;;8.02;100.00;102329.50;5030445;28;20021;-72
2021/11/12 06:13:34;;;;;;;88.35;20.13;;;;;;;8.02;100.00;102329.50;5038399;28;20059;-72
2021/11/12 06:15:59;;;;;;;75.28;18.42;;;;;;;8.07;100.00;102333.25;5035527;28;20032;-72
2021/11/12 06:18:25;;;;;;;85.70;19.83;;;;;;;8.00;100.00;102327.03;5030588;28;20029;-72
2021/11/12 06:20:50;;;;;;;83.18;20.45;;;;;;;7.99;100.00;102336.06;5029761;28;20033;-72
2021/11/12 06:23:16;;;;;;;72.82;20.83;;;;;;;8.04;100.00;102338.16;5034835;28;20028;-72
2021/11/12 06:25:42;;;;;;;65.43;19.35;;;;;;;8.05;100.00;102335.28;5030989;28;20610;-72
2021/11/12 06:28:07;;;;;;;73.60;19.23;;;;;;;8.06;100.00;102334.25;5035808;28;20542;-72
2021/11/12 06:30:33;;;;;;;64.97;18.75;;;;;;;8.10;100.00;102342.75;5038788;28;20117;-72
2021/11/12 06:32:58;;;;;;;67.47;18.38;;;;;;;8.10;100.00;102345.41;5031388;28;20029;-72
2021/11/12 06:35:24;;;;;;;75.00;19.83;;;;;;;8.14;100.00;102344.81;5026937;28;20099;-72
2021/11/12 06:37:49;;;;;;;71.80;19.25;;;;;;;8.16;100.00;102341.97;5034967;28;20041;-72
2021/11/12 06:40:19;;;;;;;69.70;19.10;;;;;;;8.16;100.00;102341.97;5031233;28;20025;-72
2021/11/12 06:50:37;;;;;;;104.43;21.80;;;;;;;8.11;100.00;102336.38;5032855;28;20087;-72
2021/11/12 06:53:04;;;;;;;92.60;21.63;;;;;;;8.06;100.00;102336.09;5032333;28;20117;-72
2021/11/12 06:55:30;;;;;;;84.50;20.05;;;;;;;8.13;100.00;102339.69;5043016;28;20093;-72
2021/11/12 06:57:56;;;;;;;78.93;19.80;;;;;;;8.21;100.00;102344.03;5041251;28;20088;-72
2021/11/12 07:00:23;;;;;;;70.13;18.85;;;;;;;8.29;100.00;102346.59;5026929;28;20049;-72
2021/11/12 07:02:49;;;;;;;86.93;20.65;;;;;;;8.27;100.00;102351.31;5031857;28;20025;-72
2021/11/12 07:05:15;;;;;;;102.45;21.48;;;;;;;8.21;100.00;102344.88;5030887;28;20037;-72
2021/11/12 07:07:41;;;;;;;91.32;20.08;;;;;;;8.11;100.00;102345.22;5026844;28;20057;-72
2021/11/12 07:10:08;;;;;;;89.47;20.85;;;;;;;8.03;100.00;102355.19;5027280;28;20052;-73
2021/11/12 07:12:34;;;;;;;92.60;21.10;;;;;;;8.12;100.00;102356.72;5028112;28;20044;-73
2021/11/12 07:14:59;;;;;;;89.47;20.92;;;;;;;8.15;100.00;102351.00;5035622;28;20032;-73
2021/11/12 07:17:25;;;;;;;82.57;21.27;;;;;;;8.07;100.00;102343.09;5032785;28;20060;-73
2021/11/12 07:19:51;;;;;;;80.57;20.02;;;;;;;8.08;100.00;102345.59;5033191;28;20111;-73
2021/11/12 07:22:17;;;;;;;79.32;19.48;;;;;;;7.99;100.00;102338.72;5033238;28;20055;-73
2021/11/12 07:24:43;;;;;;;93.78;21.45;;;;;;;7.99;100.00;102351.25;5032537;28;20433;-73
2021/11/12 07:27:09;;;;;;;84.00;19.35;;;;;;;7.96;100.00;102348.97;5035730;28;20033;-72
2021/11/12 07:29:37;;;;;;;94.38;21.23;;;;;;;7.92;100.00;102353.06;5034332;28;20091;-72
2021/11/12 07:32:07;;;;;;;91.15;21.00;;;;;;;7.98;100.00;102341.59;5032501;28;20024;-73
2021/11/12 07:34:33;;;;;;;76.25;20.05;;;;;;;8.03;100.00;102350.66;5031790;28;20025;-73
2021/11/12 07:37:12;;;;;;;87.35;19.95;;;;;;;7.97;100.00;102346.13;5030147;28;20102;-73
2021/11/12 07:47:36;;;;;;;84.68;20.30;;;;;;;8.15;100.00;102340.31;5036740;28;20064;-73
2021/11/12 07:50:06;;;;;;;108.63;22.63;;;;;;;8.14;100.00;102342.16;5035820;28;20495;-73
2021/11/12 07:52:35;;;;;;;148.55;25.48;;;;;;;8.18;100.00;102332.72;5032256;28;20044;-72
2021/11/12 07:55:02;;;;;;;161.27;25.40;;;;;;;8.17;100.00;102333.75;5024818;28;20124;-73
2021/11/12 07:57:28;;;;;;;129.77;24.92;;;;;;;8.24;100.00;102332.97;5031526;28;20033;-72
2021/11/12 07:59:55;;;;;;;102.43;21.98;;;;;;;8.32;100.00;102335.50;5032997;28;20028;-73
2021/11/12 08:02:21;;;;;;;125.72;24.00;;;;;;;8.32;100.00;102336.34;5030868;28;20037;-72
2021/11/12 08:04:48;;;;;;;79.20;19.73;;;;;;;8.38;100.00;102340.09;5036119;28;20387;-72
2021/11/12 08:07:15;;;;;;;89.82;19.95;;;;;;;8.40;100.00;102327.38;5032371;28;20033;-73
2021/11/12 08:12:11;;;;;;;111.82;21.85;;;;;;;8.46;100.00;102326.63;5035398;28;20113;-73
2021/11/12 08:24:53;;;;;;;104.20;23.33;;;;;;;8.48;100.00;102325.38;5032346;28;20732;-73
2021/11/12 08:27:47;;;;;;;122.57;24.45;;;;;;;8.51;100.00;102329.50;5035829;28;21872;-72
2021/11/12 08:38:09;;;;;;;66.88;18.38;;;;;;;8.67;100.00;102318.50;5032890;28;20021;-73
2021/11/12 08:45:29;;;;;;;68.20;17.33;;;;;;;8.68;100.00;102312.16;5033767;28;20487;-73
2021/11/12 08:48:00;;;;;;;60.08;16.27;;;;;;;8.69;100.00;102313.81;5030711;28;20041;-73
2021/11/12 08:50:27;;;;;;;61.33;18.38;;;;;;;8.75;100.00;102309.50;5030777;28;20586;-73
2021/11/12 08:53:02;;;;;;;71.03;19.65;;;;;;;8.78;100.00;102309.09;5031935;28;20143;-73
2021/11/12 08:55:29;;;;;;;66.85;17.90;;;;;;;8.79;100.00;102311.56;5032144;28;21029;-73
2021/11/12 08:57:56;;;;;;;77.10;17.73;;;;;;;8.82;100.00;102304.22;5031225;28;20159;-72
2021/11/12 09:00:22;;;;;;;69.68;18.00;;;;;;;8.84;100.00;102308.31;5032151;28;20108;-73
2021/11/12 09:02:50;;;;;;;81.95;19.70;;;;;;;8.86;100.00;102319.66;5029329;28;20040;-73
2021/11/12 09:05:18;;;;;;;57.03;16.15;;;;;;;8.92;100.00;102315.34;5031812;28;20391;-73
2021/11/12 09:07:48;;;;;;;98.75;20.48;;;;;;;8.91;100.00;102305.69;5032184;28;20033;-73
2021/11/12 09:10:14;;;;;;;78.60;17.75;;;;;;;8.93;100.00;102299.09;5030516;28;20029;-72
2021/11/12 09:12:43;;;;;;;64.65;19.30;;;;;;;8.96;100.00;102305.91;5035387;28;20033;-73
2021/11/12 09:15:27;;;;;;;95.50;21.50;;;;;;;8.94;100.00;102303.41;5030770;28;20048;-72
2021/11/12 09:17:54;;;;;;;62.72;18.30;;;;;;;8.98;100.00;102303.88;5030834;28;20024;-72
2021/11/12 09:20:20;;;;;;;57.33;17.70;;;;;;;9.00;100.00;102307.16;5027231;28;20033;-73
2021/11/12 09:22:46;;;;;;;56.03;18.45;;;;;;;9.06;100.00;102296.50;5031960;28;20108;-73
2021/11/12 09:25:12;;;;;;;45.03;15.48;;;;;;;9.08;100.00;102299.78;5030240;28;20388;-73
2021/11/12 09:27:38;;;;;;;57.55;18.48;;;;;;;9.12;100.00;102300.19;5026768;28;20395;-72
2021/11/12 09:30:05;;;;;;;57.60;17.55;;;;;;;9.16;100.00;102301.47;5028324;28;20037;-73
2021/11/12 09:32:31;;;;;;;53.97;18.25;;;;;;;9.18;100.00;102294.06;5032024;28;20550;-72
2021/11/12 09:34:57;;;;;;;47.45;17.42;;;;;;;9.17;100.00;102289.75;5030738;28;20029;-73
2021/11/12 09:37:23;;;;;;;46.15;17.05;;;;;;;9.16;99.39;102293.44;5032432;28;20021;-72
2021/11/12 09:39:57;;;;;;;46.78;17.20;;;;;;;9.16;99.65;102282.75;5030049;28;20127;-72
2021/11/12 09:42:26;;;;;;;50.13;15.85;;;;;;;9.06;99.12;102284.97;5046463;28;20114;-72
2021/11/12 09:44:52;;;;;;;47.35;16.30;;;;;;;9.10;99.57;102286.22;5031030;28;20041;-73
2021/11/12 09:47:36;;;;;;;53.58;17.55;;;;;;;9.06;99.50;102285.78;5037708;28;20032;-72
2021/11/12 09:50:07;;;;;;;52.65;16.92;;;;;;;9.05;99.17;102283.31;5031269;28;20029;-72
2021/11/12 09:52:33;;;;;;;52.85;17.30;;;;;;;9.06;99.57;102280.44;5032651;28;20547;-73
2021/11/12 09:55:00;;;;;;;50.67;18.33;;;;;;;9.08;99.23;102283.75;5026681;28;20037;-73
2021/11/12 09:57:26;;;;;;;47.75;15.60;;;;;;;9.13;99.32;102282.31;5043145;28;20029;-72
2021/11/12 09:59:54;;;;;;;51.28;18.73;;;;;;;9.17;99.37;102279.06;5035200;28;20067;-72
2021/11/12 10:02:20;;;;;;;54.13;18.50;;;;;;;9.14;99.42;102276.75;5031164;28;20033;-72
2021/11/12 10:04:47;;;;;;;55.88;18.42;;;;;;;9.21;99.27;102280.28;5029647;28;20624;-72
2021/11/12 10:07:15;;;;;;;55.88;18.38;;;;;;;9.06;99.42;102279.63;5030834;28;20059;-72
2021/11/12 10:09:42;;;;;;;50.97;17.42;;;;;;;9.07;99.53;102271.41;5031993;28;20049;-73
2021/11/12 10:12:10;;;;;;;46.65;18.27;;;;;;;9.14;99.41;102266.06;5026967;28;20026;-72
2021/11/12 10:17:11;;;;;;;47.55;17.70;;;;;;;9.25;99.09;102262.81;5030223;28;20039;-72
2021/11/12 10:19:42;;;;;;;49.17;16.50;;;;;;;9.27;99.14;102255.41;5032846;28;20025;-72
2021/11/12 10:22:09;;;;;;;45.15;16.17;;;;;;;9.37;98.80;102247.81;5032670;28;20036;-73
2021/11/12 10:24:37;;;;;;;48.50;16.02;;;;;;;9.39;98.40;102250.28;5031071;28;20033;-72
2021/11/12 10:27:08;;;;;;;42.15;14.50;;;;;;;9.46;98.33;102242.28;5031159;28;20026;-72
2021/11/12 10:29:46;;;;;;;48.40;15.23;;;;;;;9.44;97.79;102242.47;5027714;28;20395;-73
2021/11/12 10:32:18;;;;;;;47.13;15.57;;;;;;;9.45;97.72;102229.91;5025696;28;20109;-72
2021/11/12 10:34:46;;;;;;;44.65;15.68;;;;;;;9.40;97.38;102227.88;5033834;28;20033;-72
2021/11/12 10:37:16;;;;;;;36.70;14.25;;;;;;;9.41;97.17;102218.81;5030772;28;20021;-72
2021/11/12 10:39:44;;;;;;;38.90;14.48;;;;;;;9.39;97.63;102215.53;5036231;28;20063;-72
2021/11/12 10:42:22;;;;;;;34.75;14.65;;;;;;;9.35;97.27;102212.44;5026813;28;20445;-72
2021/11/12 10:44:59;;;;;;;34.70;13.88;;;;;;;9.41;97.37;102212.63;5044539;28;20026;-72
2021/11/12 10:47:27;;;;;;;40.17;14.27;;;;;;;9.51;96.89;102210.38;5040400;28;20113;-72
2021/11/12 10:50:07;;;;;;;33.75;13.70;;;;;;;9.39;96.95;102205.66;5033191;28;20038;-72
2021/11/12 10:52:35;;;;;;;35.05;13.73;;;;;;;9.48;96.80;102203.56;5037500;28;20485;-72
2021/11/12 10:55:13;;;;;;;33.15;13.23;;;;;;;9.52;96.58;102194.13;5029115;28;20109;-72
2021/11/12 10:57:46;;;;;;;31.50;12.23;;;;;;;9.54;95.88;102201.94;5029195;28;20108;-72
2021/11/12 11:00:21;;;;;;;29.88;12.75;;;;;;;9.48;95.48;102194.72;5030494;28;20073;-72
2021/11/12 11:02:47;;;;;;;34.28;13.95;;;;;;;9.57;95.62;102201.53;5029790;28;20583;-72
2021/11/12 11:05:24;;;;;;;32.25;13.05;;;;;;;9.51;95.61;102199.66;5030616;28;20025;-72
2021/11/12 11:07:55;;;;;;;29.58;13.65;;;;;;;9.63;95.58;102196.16;5028313;28;20037;-73
2021/11/12 11:10:34;;;;;;;33.05;13.38;;;;;;;9.65;95.12;102190.59;5040404;28;20648;-72
2021/11/12 11:13:09;;;;;;;32.22;12.23;;;;;;;9.58;94.59;102187.13;5033910;28;20033;-72
2021/11/12 11:15:41;;;;;;;30.67;13.85;;;;;;;9.66;95.11;102173.53;5041869;28;20036;-72
2021/11/12 11:18:25;;;;;;;30.25;12.27;;;;;;;9.61;94.50;102182.19;5047059;28;20025;-72
2021/11/12 11:23:51;;;;;;;;;;;;;;;9.49;94.80;102188.34;5033814;28;20446;-73
2021/11/12 11:26:21;;;;;;;33.33;13.48;;;;;;;9.63;94.89;102179.28;5025394;28;19931;-73
2021/11/12 11:28:49;;;;;;;33.53;13.68;;;;;;;9.67;94.78;102180.53;5045560;28;20028;-73
2021/11/12 11:31:16;;;;;;;30.67;13.30;;;;;;;9.72;94.80;102180.75;5033311;28;20059;-72
2021/11/12 11:33:46;;;;;;;26.83;13.50;;;;;;;9.73;94.29;102179.72;5036952;28;20036;-73
2021/11/12 11:36:18;;;;;;;28.63;12.15;;;;;;;9.62;94.20;102177.66;5034740;28;20036;-73
2021/11/12 11:38:45;;;;;;;26.02;12.10;;;;;;;9.65;94.42;102169.19;5033974;28;20072;-73
2021/11/12 11:41:14;;;;;;;25.88;12.95;;;;;;;9.66;94.50;102173.53;5031768;28;20025;-73
2021/11/12 11:43:41;;;;;;;30.02;14.27;;;;;;;9.63;94.16;102174.75;5045116;28;20024;-73
2021/11/12 11:46:14;;;;;;;30.33;13.57;;;;;;;9.51;94.35;102178.25;5040601;28;20025;-73
2021/11/12 11:48:44;;;;;;;33.65;14.50;;;;;;;9.56;94.47;102173.97;5030153;28;20021;-73
2021/11/12 11:51:15;;;;;;;27.42;12.82;;;;;;;9.61;94.45;102159.94;5034989;28;20021;-73
2021/11/12 11:53:47;;;;;;;32.17;14.70;;;;;;;9.63;94.19;102157.88;5040071;28;20058;-73
2021/11/12 11:56:20;;;;;;;33.22;14.63;;;;;;;9.49;94.67;102161.59;5024099;28;20021;-73
2021/11/12 11:58:47;;;;;;;33.60;14.50;;;;;;;9.54;94.77;102154.63;5025581;28;20103;-73
2021/11/12 12:01:16;;;;;;;31.15;14.88;;;;;;;9.62;94.57;102145.53;5039189;28;20388;-73
2021/11/12 12:04:05;;;;;;;33.13;15.15;;;;;;;9.71;94.55;102140.81;5036707;28;20048;-72
2021/11/12 12:06:32;;;;;;;31.27;13.65;;;;;;;9.71;94.12;102133.59;5019702;28;20535;-73
2021/11/12 12:09:08;;;;;;;34.15;14.90;;;;;;;9.76;94.20;102127.63;5037900;28;20055;-73
2021/11/12 12:11:42;;;;;;;31.60;13.35;;;;;;;9.80;93.68;102115.44;5043044;28;20039;-73
2021/11/12 12:14:27;;;;;;;30.52;14.25;;;;;;;9.89;93.42;102117.72;5038838;28;20036;-73
2021/11/12 12:17:10;;;;;;;35.25;16.05;;;;;;;10.01;93.18;102109.81;5041847;28;20067;-73
2021/11/12 12:20:09;;;;;;;33.42;15.20;;;;;;;10.09;92.64;102104.25;5037843;28;20490;-73
2021/11/12 12:34:40;;;;;;;36.60;16.38;;;;;;;10.11;92.22;102088.78;5040027;28;20119;-73
2021/11/12 13:20:13;;;;;;;30.13;13.82;;;;;;;9.71;94.39;102079.25;5040593;28;20043;-73
2021/11/12 13:25:04;;;;;;;33.83;15.15;;;;;;;9.78;94.03;102080.88;5038554;28;20075;-73
2021/11/12 13:27:30;;;;;;;35.13;15.50;;;;;;;9.77;93.16;102070.38;5040531;28;20029;-73
2021/11/12 13:29:55;;;;;;;35.35;16.40;;;;;;;9.75;93.45;102075.13;5042613;28;20044;-73
2021/11/12 13:32:21;;;;;;;37.47;17.65;;;;;;;9.75;93.48;102075.13;5033018;28;20020;-73
2021/11/12 13:34:48;;;;;;;35.80;16.15;;;;;;;9.78;93.60;102080.88;5037184;28;20036;-73
2021/11/12 13:37:15;;;;;;;43.20;18.85;;;;;;;9.80;93.32;102083.34;5027831;28;20025;-73
2021/11/12 13:39:42;;;;;;;42.65;19.60;;;;;;;9.82;93.29;102087.44;5037717;28;20026;-73
2021/11/12 13:42:09;;;;;;;42.80;19.40;;;;;;;9.80;92.87;102084.16;5038216;28;20050;-73
2021/11/12 13:44:38;;;;;;;36.78;17.63;;;;;;;9.76;93.04;102077.59;5034460;28;20768;-73
2021/11/12 13:47:16;;;;;;;34.78;17.70;;;;;;;9.77;93.19;102079.22;5039850;28;20040;-73
2021/11/12 13:49:45;;;;;;;36.63;18.35;;;;;;;9.75;93.04;102070.59;5035306;28;20028;-73
2021/11/12 13:52:17;;;;;;;44.20;21.25;;;;;;;9.70;93.00;102073.06;5045733;28;20020;-73
2021/11/12 13:54:44;;;;;;;43.15;19.35;;;;;;;9.71;93.28;102073.91;5043309;28;20082;-73
2021/11/12 13:57:13;;;;;;;42.38;19.55;;;;;;;9.69;93.20;102079.44;5036663;28;20075;-73
2021/11/12 14:00:01;;;;;;;46.83;20.75;;;;;;;9.57;93.08;102071.25;5035591;28;20056;-73
2021/11/12 14:02:48;;;;;;;42.25;20.30;;;;;;;9.66;93.36;102069.97;5030282;28;20109;-73
2021/11/12 14:05:14;;;;;;;48.10;21.50;;;;;;;9.60;93.38;102072.69;5040651;28;20044;-73
2021/11/12 14:07:39;;;;;;;37.30;19.20;;;;;;;9.54;93.36;102063.63;5037698;28;20025;-73
2021/11/12 14:10:08;;;;;;;42.33;20.63;;;;;;;9.48;93.11;102061.78;5043271;28;20589;-73
2021/11/12 14:12:35;;;;;;;45.65;20.02;;;;;;;9.41;93.39;102063.66;5044844;28;20100;-73
2021/11/12 14:26:34;;;;;;;42.05;19.33;;;;;;;9.41;93.61;102044.94;5042558;28;20036;-73
2021/11/12 14:36:54;;;;;;;40.33;18.70;;;;;;;9.19;94.12;102044.34;5043537;28;20522;-73
2021/11/12 14:39:35;;;;;;;41.17;19.98;;;;;;;9.25;94.08;102040.84;5036313;28;20029;-73
2021/11/12 14:42:26;;;;;;;36.15;19.27;;;;;;;9.25;94.05;102040.84;5039414;28;20549;-73
2021/11/12 14:45:19;;;;;;;39.15;19.08;;;;;;;9.26;94.11;102041.66;5039557;28;20033;-73
2021/11/12 14:48:11;;;;;;;43.30;18.55;;;;;;;9.22;93.95;102049.28;5037336;28;20036;-73
2021/11/12 14:50:55;;;;;;;40.47;17.58;;;;;;;9.22;93.94;102037.75;5040484;28;20075;-73
2021/11/12 14:53:35;;;;;;;36.33;17.98;;;;;;;9.16;94.09;102035.94;5045879;28;20025;-73
2021/11/12 14:56:07;;;;;;;38.42;18.42;;;;;;;9.15;94.34;102032.41;5049216;28;20493;-73
2021/11/12 14:58:40;;;;;;;32.85;16.25;;;;;;;9.16;94.35;102028.72;5038941;28;21991;-73
2021/11/12 15:01:15;;;;;;;37.75;17.90;;;;;;;9.14;94.20;102025.41;5041534;28;20025;-73
2021/11/12 15:03:45;;;;;;;38.10;16.92;;;;;;;9.13;94.49;102026.44;5046137;28;20056;-73
2021/11/12 15:06:12;;;;;;;36.17;17.65;;;;;;;9.13;94.32;102020.28;5040973;28;20116;-73
2021/11/12 15:11:11;;;;;;;34.20;17.42;;;;;;;9.02;94.69;102016.38;5042995;28;20036;-73
2021/11/12 15:13:38;;;;;;;33.17;16.58;;;;;;;9.03;94.83;102012.69;5039851;28;20031;-73
2021/11/12 15:16:12;;;;;;;34.78;16.92;;;;;;;9.04;94.78;102015.16;5043142;28;20144;-73
2021/11/12 15:18:38;;;;;;;31.77;16.42;;;;;;;9.05;94.81;102011.44;5039583;28;20036;-73
2021/11/12 15:21:10;;;;;;;34.45;16.13;;;;;;;9.01;95.04;102010.22;5039435;28;20147;-73
2021/11/12 15:31:47;;;;;;;32.60;15.57;;;;;;;9.12;95.01;102010.59;5034336;28;20033;-73
2021/11/12 15:34:13;;;;;;;33.40;15.32;;;;;;;9.13;94.86;102007.72;5034389;28;20028;-73
2021/11/12 15:36:54;;;;;;;31.38;15.75;;;;;;;9.14;94.80;102004.00;5034327;28;20151;-73
2021/11/12 15:39:29;;;;;;;36.65;17.92;;;;;;;9.13;94.74;102007.72;5033210;28;20020;-73
2021/11/12 15:44:37;;;;;;;33.85;16.42;;;;;;;9.01;94.95;102002.19;5033169;28;20025;-73
2021/11/12 15:47:20;;;;;;;30.40;16.15;;;;;;;8.97;95.00;101992.09;5035815;28;20372;-73
2021/11/12 15:49:46;;;;;;;34.95;17.27;;;;;;;8.93;95.25;101988.22;5034425;28;20021;-73
2021/11/12 15:52:18;;;;;;;31.35;16.40;;;;;;;8.85;95.19;101989.25;5039267;28;20017;-73
2021/11/12 15:55:48;;;;;;;35.70;16.58;;;;;;;8.83;95.66;101985.97;5032677;28;20040;-73
2021/11/12 15:57:59;;;;;;;32.92;17.02;;;;;;;8.84;95.99;101984.94;5030134;28;20799;-73
2021/11/12 16:26:07;;;;;;;28.27;13.70;;;;;;;8.66;96.11;101996.25;5037565;28;20383;-73
2021/11/12 16:28:44;;;;;;;34.40;15.73;;;;;;;8.57;96.20;101989.44;5044511;28;20040;-73
2021/11/12 16:31:10;;;;;;;34.75;16.92;;;;;;;8.54;97.03;101978.34;5034953;28;20068;-73
2021/11/12 16:33:37;;;;;;;29.48;14.32;;;;;;;8.58;96.94;101983.06;5039661;28;20395;-73
2021/11/12 16:36:06;;;;;;;40.78;15.73;;;;;;;8.60;97.06;101986.34;5039890;28;20095;-73
2021/11/12 16:38:35;;;;;;;33.03;16.85;;;;;;;8.56;96.97;101979.78;5032127;28;20028;-72
2021/11/12 16:43:56;;;;;;;34.47;16.00;;;;;;;8.59;96.97;101971.34;5032059;28;20197;-73
2021/11/12 16:57:06;;;;;;;30.58;13.00;;;;;;;8.70;95.61;101944.03;5015108;28;20045;-73
2021/11/12 17:02:34;;;;;;;23.73;12.93;;;;;;;8.63;95.26;101943.22;5043269;28;20175;-72
2021/11/12 17:05:04;;;;;;;25.10;12.95;;;;;;;8.62;95.63;101949.59;5041352;28;20499;-72
2021/11/12 17:13:13;;;;;;;24.25;13.68;;;;;;;8.58;95.55;101948.34;5010135;28;20047;-72
2021/11/12 17:48:30;;;;;;;23.20;12.90;;;;;;;8.58;94.70;101915.47;5034171;28;20421;-72
2021/11/12 21:44:07;;;;;;;45.35;22.00;;;;;;;7.06;86.96;101739.97;5040195;28;20171;-73